createdAt,value
2023-05-19T00:05:28.208Z,100407.91
2023-05-19T00:15:31.352Z,100399.47
2023-05-19T00:25:33.961Z,100392.22
2023-05-19T00:35:36.496Z,100390.63
2023-05-19T00:45:39.057Z,100374.03
2023-05-19T00:55:42.836Z,100377.72
2023-05-19T01:05:47.665Z,100378.78
2023-05-19T01:16:09.010Z,100369.16
2023-05-19T01:26:56.455Z,100362.72
2023-05-19T01:37:01.517Z,100363.78
2023-05-19T01:47:04.697Z,100370.66
2023-05-19T01:57:20.130Z,100375.69
2023-05-19T02:07:44.516Z,100383.53
2023-05-19T02:17:50.783Z,100387.16
2023-05-19T02:27:54.620Z,100388.47
2023-05-19T02:37:57.718Z,100395.25
2023-05-19T02:48:01.228Z,100388.28
2023-05-19T02:58:04.241Z,100378.44
2023-05-19T03:08:07.008Z,100391.13
2023-05-19T03:18:09.545Z,100390.13
2023-05-19T03:28:12.063Z,100389.59
2023-05-19T03:38:15.021Z,100406.16
2023-05-19T03:48:25.102Z,100410.56
2023-05-19T03:58:47.192Z,100412.88
2023-05-19T04:08:50.863Z,100411.94
2023-05-19T04:18:53.745Z,100431.97
2023-05-19T04:28:56.708Z,100434.13
2023-05-19T04:39:02.554Z,100446.97
2023-05-19T04:49:06.385Z,100433.72
2023-05-19T04:59:10.021Z,100430.13
2023-05-19T05:09:12.970Z,100432.41
2023-05-19T05:19:16.114Z,100431.75
2023-05-19T05:29:20.084Z,100424.31
2023-05-19T05:39:22.840Z,100445.78
2023-05-19T05:49:26.639Z,100438.22
2023-05-19T05:59:30.591Z,100448.16
2023-05-19T06:09:33.310Z,100456.59
2023-05-19T06:19:36.904Z,100474.44
2023-05-19T06:29:39.607Z,100497.91
2023-05-19T06:39:44.285Z,100489.38
2023-05-19T06:49:50.821Z,100506.22
2023-05-19T06:59:53.666Z,100501.25
2023-05-19T07:09:56.490Z,100494.09
2023-05-19T07:19:59.340Z,100492.91
2023-05-19T07:30:04.154Z,100484.03
2023-05-19T07:40:08.150Z,100477.53
2023-05-19T07:50:10.916Z,100465.59
2023-05-19T08:00:14.010Z,100457.59
2023-05-19T08:10:16.741Z,100457.81
2023-05-19T08:20:19.605Z,100456.53
2023-05-19T08:30:22.340Z,100439.78
2023-05-19T08:40:27.370Z,100450.09
2023-05-19T08:50:32.248Z,100441.03
2023-05-19T09:00:36.035Z,100450.03
2023-05-19T09:10:38.872Z,100425.00
2023-05-19T09:20:43.744Z,100428.94
2023-05-19T09:30:46.339Z,100418.38
2023-05-19T09:40:50.007Z,100409.75
2023-05-19T09:50:54.010Z,100391.66
2023-05-19T10:00:57.215Z,100394.84
2023-05-19T10:11:00.821Z,100375.53
2023-05-19T10:21:03.792Z,100390.78
2023-05-19T10:31:11.713Z,100382.81
2023-05-19T10:41:23.342Z,100384.09
2023-05-19T10:51:32.320Z,100377.75
2023-05-19T11:01:37.348Z,100372.47
2023-05-19T11:12:03.828Z,100376.66
2023-05-19T11:22:13.105Z,100364.34
2023-05-19T11:32:16.312Z,100362.50
2023-05-19T11:42:19.510Z,100367.38
2023-05-19T11:52:25.442Z,100356.28
2023-05-19T12:02:30.786Z,100345.00
2023-05-19T12:12:35.425Z,100334.00
2023-05-19T12:22:38.222Z,100326.47
2023-05-19T12:32:40.966Z,100316.75
2023-05-19T12:42:46.800Z,100298.81
2023-05-19T12:52:53.137Z,100294.34
2023-05-19T13:03:07.126Z,100300.88
2023-05-19T13:13:10.820Z,100305.97
2023-05-19T13:23:14.424Z,100301.66
2023-05-19T13:33:17.311Z,100294.38
2023-05-19T13:43:19.857Z,100289.00
2023-05-19T13:53:22.817Z,100270.47
2023-05-19T14:03:26.229Z,100270.28
2023-05-19T14:13:32.366Z,100260.34
2023-05-19T14:23:35.556Z,100262.66
2023-05-19T14:33:38.290Z,100264.31
2023-05-19T14:43:42.910Z,100262.22
2023-05-19T14:53:45.488Z,100257.50
2023-05-19T15:03:48.086Z,100269.78
2023-05-19T15:13:50.622Z,100266.63
2023-05-19T15:23:53.256Z,100249.69
2023-05-19T15:33:55.839Z,100245.31
2023-05-19T15:44:00.431Z,100223.56
2023-05-19T15:54:03.267Z,100225.63
2023-05-19T16:04:06.665Z,100210.09
2023-05-19T16:14:09.298Z,100217.81
2023-05-19T16:24:11.775Z,100219.13
2023-05-19T16:34:14.421Z,100233.53
2023-05-19T16:44:18.421Z,100235.84
2023-05-19T16:54:21.451Z,100229.94
2023-05-19T17:04:24.229Z,100223.84
2023-05-19T17:14:26.796Z,100222.38
2023-05-19T17:24:29.440Z,100220.06
2023-05-19T17:34:32.320Z,100222.03
2023-05-19T17:44:34.926Z,100217.28
2023-05-19T17:54:37.744Z,100216.50
2023-05-19T18:04:40.892Z,100208.75
2023-05-19T18:14:43.810Z,100199.88
2023-05-19T18:24:46.651Z,100198.75
2023-05-19T18:34:49.270Z,100213.13
2023-05-19T18:44:51.899Z,100222.41
2023-05-19T18:54:54.641Z,100240.19
2023-05-19T19:04:57.427Z,100239.72
2023-05-19T19:15:00.272Z,100228.72
2023-05-19T19:25:02.807Z,100230.38
2023-05-19T19:35:05.767Z,100247.28
2023-05-19T20:53:00.605Z,100245.28
2023-05-19T21:03:03.590Z,100250.00
2023-05-19T21:13:06.378Z,100288.41
2023-05-19T21:23:08.997Z,100253.53
2023-05-19T21:33:11.651Z,100263.41
2023-05-19T21:43:14.537Z,100252.13
2023-05-19T21:53:16.996Z,100249.97
2023-05-19T22:03:19.760Z,100258.97
2023-05-19T22:13:22.394Z,100253.97
2023-05-19T22:23:25.045Z,100266.66
2023-05-19T22:33:27.611Z,100235.31
2023-05-19T22:43:30.233Z,100237.91
2023-05-19T22:53:32.838Z,100258.97
2023-05-19T23:03:35.368Z,100232.78
2023-05-19T23:13:37.902Z,100212.00
2023-05-19T23:23:40.570Z,100241.28
2023-05-19T23:33:43.182Z,100217.72
2023-05-19T23:43:45.800Z,100192.34
2023-05-19T23:53:48.273Z,100183.59
